sensor_id;sensor_type;location;lat;lon;timestamp;pressure;altitude;pressure_sealevel;temperature;humidity
62025;BME280;47978;49.118;12.146;2023-05-23T00:02:52;96988.53;;;12.39;87.50
62025;BME280;47978;49.118;12.146;2023-05-23T00:06:53;96995.53;;;12.36;87.67
62025;BME280;47978;49.118;12.146;2023-05-23T00:10:56;96998.81;;;12.38;86.91
62025;BME280;47978;49.118;12.146;2023-05-23T00:14:58;97002.72;;;12.37;87.67
62025;BME280;47978;49.118;12.146;2023-05-23T00:19:00;96998.47;;;12.31;88.00
62025;BME280;47978;49.118;12.146;2023-05-23T00:23:01;97002.59;;;12.17;88.90
62025;BME280;47978;49.118;12.146;2023-05-23T00:27:04;97001.97;;;12.02;90.28
62025;BME280;47978;49.118;12.146;2023-05-23T00:31:06;97013.53;;;12.13;89.24
62025;BME280;47978;49.118;12.146;2023-05-23T00:35:08;97004.41;;;12.12;90.69
62025;BME280;47978;49.118;12.146;2023-05-23T00:39:10;97013.84;;;12.03;90.03
62025;BME280;47978;49.118;12.146;2023-05-23T00:43:13;97018.25;;;11.95;90.16
62025;BME280;47978;49.118;12.146;2023-05-23T00:47:14;97025.75;;;11.86;90.65
62025;BME280;47978;49.118;12.146;2023-05-23T00:51:16;97021.50;;;11.80;90.97
62025;BME280;47978;49.118;12.146;2023-05-23T00:55:18;97023.75;;;11.78;91.57
62025;BME280;47978;49.118;12.146;2023-05-23T00:59:21;97028.00;;;11.75;91.24
62025;BME280;47978;49.118;12.146;2023-05-23T01:03:24;97022.00;;;11.73;91.71
62025;BME280;47978;49.118;12.146;2023-05-23T01:07:26;97019.88;;;11.61;92.07
62025;BME280;47978;49.118;12.146;2023-05-23T01:11:34;97025.88;;;11.63;92.43
62025;BME280;47978;49.118;12.146;2023-05-23T01:15:43;97031.09;;;11.47;93.34
62025;BME280;47978;49.118;12.146;2023-05-23T01:19:53;97047.69;;;11.47;93.50
62025;BME280;47978;49.118;12.146;2023-05-23T01:24:14;97043.63;;;11.54;93.00
62025;BME280;47978;49.118;12.146;2023-05-23T01:28:26;97048.66;;;11.52;93.16
62025;BME280;47978;49.118;12.146;2023-05-23T01:32:28;97058.63;;;11.53;93.02
62025;BME280;47978;49.118;12.146;2023-05-23T01:36:32;97060.75;;;11.56;93.05
62025;BME280;47978;49.118;12.146;2023-05-23T01:40:35;97062.66;;;11.46;93.52
62025;BME280;47978;49.118;12.146;2023-05-23T01:44:38;97065.28;;;11.43;93.46
62025;BME280;47978;49.118;12.146;2023-05-23T01:48:40;97063.78;;;11.37;94.24
62025;BME280;47978;49.118;12.146;2023-05-23T01:52:43;97061.97;;;11.32;94.60
62025;BME280;47978;49.118;12.146;2023-05-23T01:56:46;97056.13;;;11.25;95.13
62025;BME280;47978;49.118;12.146;2023-05-23T02:00:49;97059.53;;;11.31;95.66
62025;BME280;47978;49.118;12.146;2023-05-23T02:04:52;97056.94;;;11.34;94.76
62025;BME280;47978;49.118;12.146;2023-05-23T02:08:53;97060.00;;;11.24;95.65
62025;BME280;47978;49.118;12.146;2023-05-23T02:12:55;97053.84;;;11.27;95.81
62025;BME280;47978;49.118;12.146;2023-05-23T02:16:58;97051.41;;;11.34;95.64
62025;BME280;47978;49.118;12.146;2023-05-23T02:20:59;97058.56;;;11.35;95.77
62025;BME280;47978;49.118;12.146;2023-05-23T02:25:01;97059.72;;;11.43;95.25
62025;BME280;47978;49.118;12.146;2023-05-23T02:29:03;97068.19;;;11.46;95.45
62025;BME280;47978;49.118;12.146;2023-05-23T02:33:06;97063.19;;;11.57;94.99
62025;BME280;47978;49.118;12.146;2023-05-23T02:37:08;97063.19;;;11.66;94.66
62025;BME280;47978;49.118;12.146;2023-05-23T02:41:09;97061.09;;;11.71;94.84
62025;BME280;47978;49.118;12.146;2023-05-23T02:45:11;97055.69;;;11.75;94.74
62025;BME280;47978;49.118;12.146;2023-05-23T02:49:14;97054.59;;;11.85;94.38
62025;BME280;47978;49.118;12.146;2023-05-23T02:53:16;97054.09;;;11.83;94.67
62025;BME280;47978;49.118;12.146;2023-05-23T02:57:17;97059.13;;;11.81;95.44
62025;BME280;47978;49.118;12.146;2023-05-23T03:01:19;97056.72;;;11.88;94.77
62025;BME280;47978;49.118;12.146;2023-05-23T03:05:22;97055.25;;;11.82;95.32
62025;BME280;47978;49.118;12.146;2023-05-23T03:09:24;97051.19;;;11.88;95.21
62025;BME280;47978;49.118;12.146;2023-05-23T03:13:25;97050.03;;;12.15;94.03
62025;BME280;47978;49.118;12.146;2023-05-23T03:17:27;97053.78;;;12.28;93.98
62025;BME280;47978;49.118;12.146;2023-05-23T03:21:31;97040.56;;;12.33;93.81
62025;BME280;47978;49.118;12.146;2023-05-23T03:25:32;97040.88;;;12.41;93.02
62025;BME280;47978;49.118;12.146;2023-05-23T03:29:34;97037.59;;;12.56;92.64
62025;BME280;47978;49.118;12.146;2023-05-23T03:33:36;97040.03;;;12.49;93.25
62025;BME280;47978;49.118;12.146;2023-05-23T03:37:42;97049.81;;;12.46;93.48
62025;BME280;47978;49.118;12.146;2023-05-23T03:41:43;97046.69;;;12.65;93.69
62025;BME280;47978;49.118;12.146;2023-05-23T03:45:45;97048.19;;;12.54;93.28
62025;BME280;47978;49.118;12.146;2023-05-23T03:49:47;97049.44;;;12.74;92.39
62025;BME280;47978;49.118;12.146;2023-05-23T03:53:50;97056.47;;;12.71;91.96
62025;BME280;47978;49.118;12.146;2023-05-23T03:57:52;97065.56;;;12.80;92.55
62025;BME280;47978;49.118;12.146;2023-05-23T04:01:54;97065.63;;;12.63;92.82
62025;BME280;47978;49.118;12.146;2023-05-23T04:05:56;97061.16;;;12.79;92.79
62025;BME280;47978;49.118;12.146;2023-05-23T04:09:59;97064.38;;;12.34;94.32
62025;BME280;47978;49.118;12.146;2023-05-23T04:14:00;97059.00;;;12.38;95.16
62025;BME280;47978;49.118;12.146;2023-05-23T04:18:02;97058.50;;;12.36;95.69
62025;BME280;47978;49.118;12.146;2023-05-23T04:22:04;97050.84;;;12.42;95.76
62025;BME280;47978;49.118;12.146;2023-05-23T04:26:07;97061.38;;;12.57;95.32
62025;BME280;47978;49.118;12.146;2023-05-23T04:30:09;97073.16;;;13.10;93.11
62025;BME280;47978;49.118;12.146;2023-05-23T04:34:11;97082.06;;;13.33;91.19
62025;BME280;47978;49.118;12.146;2023-05-23T04:38:13;97088.59;;;13.66;89.84
62025;BME280;47978;49.118;12.146;2023-05-23T04:42:15;97086.63;;;13.88;88.78
62025;BME280;47978;49.118;12.146;2023-05-23T04:46:17;97100.06;;;14.28;88.25
62025;BME280;47978;49.118;12.146;2023-05-23T04:50:19;97093.22;;;14.04;88.83
62025;BME280;47978;49.118;12.146;2023-05-23T04:54:20;97096.94;;;14.08;88.95
62025;BME280;47978;49.118;12.146;2023-05-23T04:58:24;97095.88;;;14.22;87.86
62025;BME280;47978;49.118;12.146;2023-05-23T05:02:25;97099.47;;;13.71;90.90
62025;BME280;47978;49.118;12.146;2023-05-23T05:06:27;97092.97;;;13.67;91.87
62025;BME280;47978;49.118;12.146;2023-05-23T05:10:29;97112.25;;;13.93;90.40
62025;BME280;47978;49.118;12.146;2023-05-23T05:14:32;97109.78;;;14.22;89.27
62025;BME280;47978;49.118;12.146;2023-05-23T05:18:34;97107.78;;;14.64;86.61
62025;BME280;47978;49.118;12.146;2023-05-23T05:22:35;97115.53;;;14.58;87.29
62025;BME280;47978;49.118;12.146;2023-05-23T05:26:37;97115.56;;;15.04;85.28
62025;BME280;47978;49.118;12.146;2023-05-23T05:30:40;97109.56;;;16.53;80.41
62025;BME280;47978;49.118;12.146;2023-05-23T05:34:42;97112.84;;;19.69;67.45
62025;BME280;47978;49.118;12.146;2023-05-23T05:38:45;97113.19;;;21.41;61.14
62025;BME280;47978;49.118;12.146;2023-05-23T05:42:47;97109.38;;;21.26;59.23
62025;BME280;47978;49.118;12.146;2023-05-23T05:46:50;97107.25;;;22.67;55.44
62025;BME280;47978;49.118;12.146;2023-05-23T05:50:52;97115.31;;;19.97;63.84
62025;BME280;47978;49.118;12.146;2023-05-23T05:54:53;97115.34;;;19.51;65.45
62025;BME280;47978;49.118;12.146;2023-05-23T05:58:55;97111.91;;;21.79;60.44
62025;BME280;47978;49.118;12.146;2023-05-23T06:02:58;97110.09;;;22.71;58.44
62025;BME280;47978;49.118;12.146;2023-05-23T06:06:59;97115.50;;;23.01;56.89
62025;BME280;47978;49.118;12.146;2023-05-23T06:11:01;97128.41;;;23.17;54.95
62025;BME280;47978;49.118;12.146;2023-05-23T06:15:03;97135.38;;;23.62;52.84
62025;BME280;47978;49.118;12.146;2023-05-23T06:19:06;97147.22;;;22.87;56.22
62025;BME280;47978;49.118;12.146;2023-05-23T06:23:08;97141.59;;;22.18;57.31
62025;BME280;47978;49.118;12.146;2023-05-23T06:27:10;97137.41;;;21.19;59.78
62025;BME280;47978;49.118;12.146;2023-05-23T06:31:11;97135.56;;;21.34;60.20
62025;BME280;47978;49.118;12.146;2023-05-23T06:35:14;97142.72;;;21.24;61.65
62025;BME280;47978;49.118;12.146;2023-05-23T06:39:16;97149.91;;;21.59;60.41
62025;BME280;47978;49.118;12.146;2023-05-23T06:43:18;97143.69;;;23.05;57.68
62025;BME280;47978;49.118;12.146;2023-05-23T06:47:19;97148.34;;;23.81;55.73
62025;BME280;47978;49.118;12.146;2023-05-23T06:51:22;97140.69;;;23.78;54.43
62025;BME280;47978;49.118;12.146;2023-05-23T06:55:24;97140.19;;;24.69;52.00
62025;BME280;47978;49.118;12.146;2023-05-23T06:59:26;97140.44;;;22.99;57.92
62025;BME280;47978;49.118;12.146;2023-05-23T07:03:27;97144.53;;;22.39;59.88
62025;BME280;47978;49.118;12.146;2023-05-23T07:07:30;97144.44;;;22.21;60.82
62025;BME280;47978;49.118;12.146;2023-05-23T07:11:32;97143.69;;;21.39;62.57
62025;BME280;47978;49.118;12.146;2023-05-23T07:15:33;97137.50;;;21.64;61.96
62025;BME280;47978;49.118;12.146;2023-05-23T07:19:36;97145.00;;;21.49;62.86
62025;BME280;47978;49.118;12.146;2023-05-23T07:23:39;97159.78;;;22.31;60.06
62025;BME280;47978;49.118;12.146;2023-05-23T07:27:41;97150.47;;;22.89;59.56
62025;BME280;47978;49.118;12.146;2023-05-23T07:31:43;97150.09;;;22.91;58.53
62025;BME280;47978;49.118;12.146;2023-05-23T07:35:45;97156.31;;;21.19;63.16
62025;BME280;47978;49.118;12.146;2023-05-23T07:39:48;97150.84;;;20.99;64.33
62025;BME280;47978;49.118;12.146;2023-05-23T07:43:49;97154.09;;;21.35;62.31
62025;BME280;47978;49.118;12.146;2023-05-23T07:47:51;97153.13;;;22.06;61.93
62025;BME280;47978;49.118;12.146;2023-05-23T07:51:52;97157.50;;;23.31;58.94
62025;BME280;47978;49.118;12.146;2023-05-23T07:55:55;97152.25;;;23.33;56.89
62025;BME280;47978;49.118;12.146;2023-05-23T07:59:57;97159.06;;;22.45;57.81
62025;BME280;47978;49.118;12.146;2023-05-23T08:03:58;97150.28;;;23.48;56.57
62025;BME280;47978;49.118;12.146;2023-05-23T08:08:00;97154.81;;;22.69;58.27
62025;BME280;47978;49.118;12.146;2023-05-23T08:12:04;97165.66;;;22.71;58.44
62025;BME280;47978;49.118;12.146;2023-05-23T08:16:05;97165.84;;;22.99;57.53
62025;BME280;47978;49.118;12.146;2023-05-23T08:20:08;97166.47;;;23.73;55.85
62025;BME280;47978;49.118;12.146;2023-05-23T08:24:10;97170.47;;;23.57;57.84
62025;BME280;47978;49.118;12.146;2023-05-23T08:28:16;97169.91;;;23.05;57.15
62025;BME280;47978;49.118;12.146;2023-05-23T08:32:18;97174.44;;;22.55;59.75
62025;BME280;47978;49.118;12.146;2023-05-23T08:36:19;97182.66;;;22.22;61.00
62025;BME280;47978;49.118;12.146;2023-05-23T08:40:21;97181.34;;;22.09;62.41
62025;BME280;47978;49.118;12.146;2023-05-23T08:44:25;97184.53;;;22.59;59.05
62025;BME280;47978;49.118;12.146;2023-05-23T08:48:27;97198.81;;;21.85;62.15
62025;BME280;47978;49.118;12.146;2023-05-23T08:52:29;97190.38;;;21.44;63.03
62025;BME280;47978;49.118;12.146;2023-05-23T08:56:34;97200.06;;;22.32;60.85
62025;BME280;47978;49.118;12.146;2023-05-23T09:00:37;97199.28;;;22.35;60.73
62025;BME280;47978;49.118;12.146;2023-05-23T09:04:39;97207.34;;;21.21;63.14
62025;BME280;47978;49.118;12.146;2023-05-23T09:08:40;97223.44;;;20.90;65.03
62025;BME280;47978;49.118;12.146;2023-05-23T09:12:42;97214.13;;;21.46;62.24
62025;BME280;47978;49.118;12.146;2023-05-23T09:16:46;97212.25;;;22.06;59.20
62025;BME280;47978;49.118;12.146;2023-05-23T09:20:48;97209.41;;;22.47;57.81
62025;BME280;47978;49.118;12.146;2023-05-23T09:24:49;97212.44;;;21.79;60.44
62025;BME280;47978;49.118;12.146;2023-05-23T09:28:56;97209.69;;;21.86;60.39
62025;BME280;47978;49.118;12.146;2023-05-23T09:32:59;97215.81;;;21.95;59.48
62025;BME280;47978;49.118;12.146;2023-05-23T09:37:05;97212.28;;;21.65;60.27
62025;BME280;47978;49.118;12.146;2023-05-23T09:41:08;97215.69;;;21.14;61.80
62025;BME280;47978;49.118;12.146;2023-05-23T09:45:10;97220.69;;;20.67;62.96
62025;BME280;47978;49.118;12.146;2023-05-23T09:49:16;97208.81;;;21.78;60.55
62025;BME280;47978;49.118;12.146;2023-05-23T09:53:18;97213.31;;;21.87;58.54
62025;BME280;47978;49.118;12.146;2023-05-23T09:57:21;97217.63;;;21.40;59.80
62025;BME280;47978;49.118;12.146;2023-05-23T10:01:25;97226.91;;;22.18;57.60
62025;BME280;47978;49.118;12.146;2023-05-23T10:05:35;97228.84;;;21.70;59.37
62025;BME280;47978;49.118;12.146;2023-05-23T10:09:38;97213.88;;;22.03;58.54
62025;BME280;47978;49.118;12.146;2023-05-23T10:13:40;97214.59;;;21.52;59.95
62025;BME280;47978;49.118;12.146;2023-05-23T10:17:55;97224.47;;;21.76;59.91
62025;BME280;47978;49.118;12.146;2023-05-23T10:22:00;97237.03;;;20.88;60.55
62025;BME280;47978;49.118;12.146;2023-05-23T10:26:04;97221.22;;;21.74;57.33
62025;BME280;47978;49.118;12.146;2023-05-23T10:30:07;97219.31;;;21.85;57.02
62025;BME280;47978;49.118;12.146;2023-05-23T10:34:14;97222.47;;;21.76;56.69
62025;BME280;47978;49.118;12.146;2023-05-23T10:38:27;97224.13;;;21.44;57.80
62025;BME280;47978;49.118;12.146;2023-05-23T10:42:40;97237.81;;;21.15;58.21
62025;BME280;47978;49.118;12.146;2023-05-23T10:46:50;97236.00;;;21.00;58.06
62025;BME280;47978;49.118;12.146;2023-05-23T10:51:11;97238.91;;;21.07;57.17
62025;BME280;47978;49.118;12.146;2023-05-23T10:55:15;97242.56;;;21.11;56.18
62025;BME280;47978;49.118;12.146;2023-05-23T10:59:20;97236.00;;;21.64;55.33
62025;BME280;47978;49.118;12.146;2023-05-23T11:03:32;97238.19;;;21.44;57.00
62025;BME280;47978;49.118;12.146;2023-05-23T11:07:34;97228.16;;;21.13;57.62
62025;BME280;47978;49.118;12.146;2023-05-23T11:11:58;97228.16;;;21.13;57.42
62025;BME280;47978;49.118;12.146;2023-05-23T11:16:00;97228.06;;;21.73;56.24
62025;BME280;47978;49.118;12.146;2023-05-23T11:20:24;97221.03;;;21.56;56.36
62025;BME280;47978;49.118;12.146;2023-05-23T11:24:49;97230.41;;;21.33;56.89
62025;BME280;47978;49.118;12.146;2023-05-23T11:28:56;97222.66;;;21.23;56.49
62025;BME280;47978;49.118;12.146;2023-05-23T11:32:58;97223.69;;;21.42;57.33
62025;BME280;47978;49.118;12.146;2023-05-23T11:36:59;97220.41;;;21.73;55.83
62025;BME280;47978;49.118;12.146;2023-05-23T11:41:01;97226.03;;;21.70;55.94
62025;BME280;47978;49.118;12.146;2023-05-23T11:45:08;97221.22;;;21.74;56.52
62025;BME280;47978;49.118;12.146;2023-05-23T11:49:10;97221.97;;;21.67;58.09
62025;BME280;47978;49.118;12.146;2023-05-23T11:53:12;97204.75;;;21.72;57.64
62025;BME280;47978;49.118;12.146;2023-05-23T11:57:13;97202.16;;;21.97;56.49
62025;BME280;47978;49.118;12.146;2023-05-23T12:01:16;97201.00;;;22.54;53.71
62025;BME280;47978;49.118;12.146;2023-05-23T12:05:18;97189.19;;;22.96;51.79
62025;BME280;47978;49.118;12.146;2023-05-23T12:09:19;97189.34;;;23.39;50.81
62025;BME280;47978;49.118;12.146;2023-05-23T12:13:23;97193.34;;;23.27;49.88
62025;BME280;47978;49.118;12.146;2023-05-23T12:17:27;97203.66;;;22.29;51.13
62025;BME280;47978;49.118;12.146;2023-05-23T12:21:39;97195.00;;;23.28;49.85
62025;BME280;47978;49.118;12.146;2023-05-23T12:25:41;97192.91;;;23.18;49.99
62025;BME280;47978;49.118;12.146;2023-05-23T12:29:49;97206.22;;;23.14;49.52
62025;BME280;47978;49.118;12.146;2023-05-23T12:33:52;97211.88;;;23.21;49.93
62025;BME280;47978;49.118;12.146;2023-05-23T12:37:55;97206.78;;;22.79;51.14
62025;BME280;47978;49.118;12.146;2023-05-23T12:42:06;97209.59;;;22.72;50.04
62025;BME280;47978;49.118;12.146;2023-05-23T12:46:08;97213.25;;;22.79;49.73
62025;BME280;47978;49.118;12.146;2023-05-23T12:50:11;97215.81;;;22.40;51.41
62025;BME280;47978;49.118;12.146;2023-05-23T12:54:12;97196.38;;;22.86;51.88
62025;BME280;47978;49.118;12.146;2023-05-23T12:58:14;97207.13;;;22.66;52.49
62025;BME280;47978;49.118;12.146;2023-05-23T13:02:15;97218.63;;;22.40;52.95
62025;BME280;47978;49.118;12.146;2023-05-23T13:06:18;97232.28;;;22.34;52.45
62025;BME280;47978;49.118;12.146;2023-05-23T13:10:20;97226.22;;;21.91;52.80
62025;BME280;47978;49.118;12.146;2023-05-23T13:14:22;97227.38;;;21.83;53.54
62025;BME280;47978;49.118;12.146;2023-05-23T13:18:24;97240.75;;;21.97;52.42
62025;BME280;47978;49.118;12.146;2023-05-23T13:22:27;97239.94;;;22.37;51.23
62025;BME280;47978;49.118;12.146;2023-05-23T13:26:29;97245.09;;;22.28;50.02
62025;BME280;47978;49.118;12.146;2023-05-23T13:30:31;97240.31;;;22.36;50.21
62025;BME280;47978;49.118;12.146;2023-05-23T13:34:32;97246.97;;;21.72;52.52
62025;BME280;47978;49.118;12.146;2023-05-23T13:38:36;97253.94;;;22.27;51.85
62025;BME280;47978;49.118;12.146;2023-05-23T13:42:38;97254.84;;;22.41;51.17
62025;BME280;47978;49.118;12.146;2023-05-23T13:46:41;97268.41;;;21.88;52.98
62025;BME280;47978;49.118;12.146;2023-05-23T13:50:43;97267.41;;;21.05;53.76
62025;BME280;47978;49.118;12.146;2023-05-23T13:54:46;97266.50;;;21.28;53.69
62025;BME280;47978;49.118;12.146;2023-05-23T13:58:48;97268.34;;;21.43;52.15
62025;BME280;47978;49.118;12.146;2023-05-23T14:02:50;97279.72;;;20.97;52.41
62025;BME280;47978;49.118;12.146;2023-05-23T14:06:52;97285.16;;;20.56;51.74
62025;BME280;47978;49.118;12.146;2023-05-23T14:10:55;97278.69;;;20.79;51.32
62025;BME280;47978;49.118;12.146;2023-05-23T14:14:56;97283.94;;;21.10;51.17
62025;BME280;47978;49.118;12.146;2023-05-23T14:18:58;97273.09;;;20.82;51.48
62025;BME280;47978;49.118;12.146;2023-05-23T14:22:59;97276.31;;;21.11;50.60
62025;BME280;47978;49.118;12.146;2023-05-23T14:27:02;97271.75;;;21.29;51.61
62025;BME280;47978;49.118;12.146;2023-05-23T14:31:04;97278.56;;;20.72;51.63
62025;BME280;47978;49.118;12.146;2023-05-23T14:35:08;97282.72;;;20.55;52.21
62025;BME280;47978;49.118;12.146;2023-05-23T14:39:10;97277.31;;;20.46;51.53
62025;BME280;47978;49.118;12.146;2023-05-23T14:43:13;97277.53;;;20.57;50.74
62025;BME280;47978;49.118;12.146;2023-05-23T14:47:14;97283.66;;;20.89;50.87
62025;BME280;47978;49.118;12.146;2023-05-23T14:51:16;97282.91;;;20.92;51.23
62025;BME280;47978;49.118;12.146;2023-05-23T14:55:37;97298.94;;;20.92;50.61
62025;BME280;47978;49.118;12.146;2023-05-23T14:59:40;97296.88;;;20.39;53.23
62025;BME280;47978;49.118;12.146;2023-05-23T15:03:42;97298.81;;;20.35;53.45
62025;BME280;47978;49.118;12.146;2023-05-23T15:07:44;97286.34;;;20.32;53.58
62025;BME280;47978;49.118;12.146;2023-05-23T15:11:45;97286.50;;;20.43;53.77
62025;BME280;47978;49.118;12.146;2023-05-23T15:15:48;97291.22;;;20.58;51.79
62025;BME280;47978;49.118;12.146;2023-05-23T15:19:50;97284.41;;;20.59;51.95
62025;BME280;47978;49.118;12.146;2023-05-23T15:23:51;97292.53;;;21.21;51.85
62025;BME280;47978;49.118;12.146;2023-05-23T15:27:53;97288.31;;;21.34;51.08
62025;BME280;47978;49.118;12.146;2023-05-23T15:31:56;97281.84;;;20.77;50.50
62025;BME280;47978;49.118;12.146;2023-05-23T15:35:57;97288.25;;;20.51;52.44
62025;BME280;47978;49.118;12.146;2023-05-23T15:39:59;97291.63;;;20.60;52.23
62025;BME280;47978;49.118;12.146;2023-05-23T15:44:01;97285.84;;;20.04;53.51
62025;BME280;47978;49.118;12.146;2023-05-23T15:48:05;97296.44;;;20.14;54.09
62025;BME280;47978;49.118;12.146;2023-05-23T15:52:06;97300.25;;;20.02;53.80
62025;BME280;47978;49.118;12.146;2023-05-23T15:56:08;97315.47;;;20.01;53.74
62025;BME280;47978;49.118;12.146;2023-05-23T16:00:11;97296.75;;;19.86;53.74
62025;BME280;47978;49.118;12.146;2023-05-23T16:04:14;97313.56;;;19.86;53.89
62025;BME280;47978;49.118;12.146;2023-05-23T16:08:16;97316.66;;;20.00;54.08
62025;BME280;47978;49.118;12.146;2023-05-23T16:12:17;97314.09;;;20.14;54.27
62025;BME280;47978;49.118;12.146;2023-05-23T16:16:19;97308.19;;;20.19;54.45
62025;BME280;47978;49.118;12.146;2023-05-23T16:20:22;97309.47;;;20.72;53.77
62025;BME280;47978;49.118;12.146;2023-05-23T16:24:23;97306.16;;;20.89;53.15
62025;BME280;47978;49.118;12.146;2023-05-23T16:28:26;97305.97;;;20.78;52.72
62025;BME280;47978;49.118;12.146;2023-05-23T16:32:28;97311.94;;;20.04;55.16
62025;BME280;47978;49.118;12.146;2023-05-23T16:36:31;97315.50;;;19.82;55.29
62025;BME280;47978;49.118;12.146;2023-05-23T16:40:32;97319.34;;;19.54;56.39
62025;BME280;47978;49.118;12.146;2023-05-23T16:44:34;97325.53;;;19.83;56.34
62025;BME280;47978;49.118;12.146;2023-05-23T16:48:35;97321.78;;;19.75;56.71
62025;BME280;47978;49.118;12.146;2023-05-23T16:52:38;97325.25;;;19.88;55.60
62025;BME280;47978;49.118;12.146;2023-05-23T16:56:40;97327.84;;;19.77;55.89
62025;BME280;47978;49.118;12.146;2023-05-23T17:00:41;97324.53;;;19.71;56.26
62025;BME280;47978;49.118;12.146;2023-05-23T17:04:43;97322.88;;;19.51;57.14
62025;BME280;47978;49.118;12.146;2023-05-23T17:08:46;97334.59;;;19.37;57.50
62025;BME280;47978;49.118;12.146;2023-05-23T17:12:48;97326.91;;;19.15;58.14
62025;BME280;47978;49.118;12.146;2023-05-23T17:16:49;97336.50;;;19.14;57.79
62025;BME280;47978;49.118;12.146;2023-05-23T17:20:51;97337.94;;;18.88;59.28
62025;BME280;47978;49.118;12.146;2023-05-23T17:24:54;97335.09;;;19.23;57.76
62025;BME280;47978;49.118;12.146;2023-05-23T17:28:55;97344.84;;;19.29;57.69
62025;BME280;47978;49.118;12.146;2023-05-23T17:32:57;97353.66;;;19.28;58.01
62025;BME280;47978;49.118;12.146;2023-05-23T17:36:58;97361.69;;;18.94;59.10
62025;BME280;47978;49.118;12.146;2023-05-23T17:41:01;97350.28;;;19.03;59.59
62025;BME280;47978;49.118;12.146;2023-05-23T17:45:03;97349.38;;;18.99;59.62
62025;BME280;47978;49.118;12.146;2023-05-23T17:49:05;97361.97;;;18.73;60.94
62025;BME280;47978;49.118;12.146;2023-05-23T17:53:07;97369.88;;;18.08;62.07
62025;BME280;47978;49.118;12.146;2023-05-23T17:57:10;97366.72;;;18.09;63.21
62025;BME280;47978;49.118;12.146;2023-05-23T18:01:11;97365.25;;;17.71;64.04
62025;BME280;47978;49.118;12.146;2023-05-23T18:05:13;97370.00;;;17.83;63.52
62025;BME280;47978;49.118;12.146;2023-05-23T18:09:14;97367.06;;;17.51;65.09
62025;BME280;47978;49.118;12.146;2023-05-23T18:13:17;97373.44;;;17.36;66.24
62025;BME280;47978;49.118;12.146;2023-05-23T18:17:19;97379.97;;;17.16;66.09
62025;BME280;47978;49.118;12.146;2023-05-23T18:21:21;97379.28;;;17.06;67.39
62025;BME280;47978;49.118;12.146;2023-05-23T18:25:22;97390.22;;;17.12;67.45
62025;BME280;47978;49.118;12.146;2023-05-23T18:29:25;97384.09;;;16.94;67.52
62025;BME280;47978;49.118;12.146;2023-05-23T18:33:27;97392.69;;;17.01;67.00
62025;BME280;47978;49.118;12.146;2023-05-23T18:37:29;97402.72;;;16.77;67.44
62025;BME280;47978;49.118;12.146;2023-05-23T18:41:30;97399.06;;;16.52;68.17
62025;BME280;47978;49.118;12.146;2023-05-23T18:45:33;97400.56;;;16.50;69.56
62025;BME280;47978;49.118;12.146;2023-05-23T18:49:35;97410.34;;;16.44;69.03
62025;BME280;47978;49.118;12.146;2023-05-23T18:53:36;97424.50;;;16.38;69.37
62025;BME280;47978;49.118;12.146;2023-05-23T18:57:40;97424.06;;;16.36;69.75
62025;BME280;47978;49.118;12.146;2023-05-23T19:01:43;97432.47;;;16.15;70.71
62025;BME280;47978;49.118;12.146;2023-05-23T19:05:44;97438.31;;;16.23;70.13
62025;BME280;47978;49.118;12.146;2023-05-23T19:09:46;97443.22;;;16.26;70.67
62025;BME280;47978;49.118;12.146;2023-05-23T19:13:48;97444.28;;;16.00;71.68
62025;BME280;47978;49.118;12.146;2023-05-23T19:17:50;97449.78;;;16.09;71.28
62025;BME280;47978;49.118;12.146;2023-05-23T19:21:52;97446.69;;;15.89;72.36
62025;BME280;47978;49.118;12.146;2023-05-23T19:25:54;97458.03;;;16.05;71.82
62025;BME280;47978;49.118;12.146;2023-05-23T19:29:55;97460.47;;;16.07;71.60
62025;BME280;47978;49.118;12.146;2023-05-23T19:33:58;97468.22;;;16.01;72.14
62025;BME280;47978;49.118;12.146;2023-05-23T19:38:00;97482.03;;;15.98;72.31
62025;BME280;47978;49.118;12.146;2023-05-23T19:42:01;97477.75;;;16.00;73.04
62025;BME280;47978;49.118;12.146;2023-05-23T19:46:03;97492.69;;;16.16;72.41
62025;BME280;47978;49.118;12.146;2023-05-23T19:50:08;97489.03;;;16.04;72.92
62025;BME280;47978;49.118;12.146;2023-05-23T19:54:10;97506.66;;;15.95;73.49
62025;BME280;47978;49.118;12.146;2023-05-23T19:58:12;97519.88;;;15.86;73.81
62025;BME280;47978;49.118;12.146;2023-05-23T20:02:13;97521.50;;;15.87;74.46
62025;BME280;47978;49.118;12.146;2023-05-23T20:06:16;97522.47;;;15.62;75.52
62025;BME280;47978;49.118;12.146;2023-05-23T20:10:18;97530.22;;;15.86;75.10
62025;BME280;47978;49.118;12.146;2023-05-23T20:14:19;97536.47;;;15.83;74.65
62025;BME280;47978;49.118;12.146;2023-05-23T20:18:21;97537.22;;;15.62;74.50
62025;BME280;47978;49.118;12.146;2023-05-23T20:22:24;97543.06;;;15.48;74.80
62025;BME280;47978;49.118;12.146;2023-05-23T20:26:26;97546.66;;;15.49;74.42
62025;BME280;47978;49.118;12.146;2023-05-23T20:30:27;97555.88;;;15.41;74.50
62025;BME280;47978;49.118;12.146;2023-05-23T20:34:29;97554.69;;;15.21;74.47
62025;BME280;47978;49.118;12.146;2023-05-23T20:38:32;97563.13;;;15.33;75.02
62025;BME280;47978;49.118;12.146;2023-05-23T20:42:33;97557.41;;;15.29;74.40
62025;BME280;47978;49.118;12.146;2023-05-23T20:46:35;97565.50;;;15.14;75.29
62025;BME280;47978;49.118;12.146;2023-05-23T20:50:37;97559.06;;;14.92;76.00
62025;BME280;47978;49.118;12.146;2023-05-23T20:54:40;97561.34;;;14.90;76.24
62025;BME280;47978;49.118;12.146;2023-05-23T20:58:41;97571.31;;;15.00;76.30
62025;BME280;47978;49.118;12.146;2023-05-23T21:02:43;97573.00;;;14.83;77.00
62025;BME280;47978;49.118;12.146;2023-05-23T21:06:44;97571.53;;;14.86;76.73
62025;BME280;47978;49.118;12.146;2023-05-23T21:10:47;97568.41;;;14.79;77.04